Time;durP1;ratioP1;P1;durP2;ratioP2;P2;SDS_P1;SDS_P2;PMS_P1;PMS_P2;Temp;Humidity;BMP_temperature;BMP_pressure;BME280_temperature;BME280_humidity;BME280_pressure;Samples;Min_cycle;Max_cycle;Signal;HPM_P1;HPM_P2
2024/01/08 00:26:30;;;;;;;13.07;6.53;;;;;;;-2.26;100.00;102678.59;5975396;22;8238301;-92
2024/01/08 00:28:58;;;;;;;10.75;6.38;;;;;;;-2.28;100.00;102677.66;6252146;22;20457;-92
2024/01/08 00:31:23;;;;;;;13.70;6.65;;;;;;;-2.26;100.00;102676.78;6203370;22;20023;-91
2024/01/08 00:33:49;;;;;;;12.45;6.50;;;;;;;-2.26;100.00;102675.91;6201651;22;20014;-92
2024/01/08 00:36:14;;;;;;;13.35;7.25;;;;;;;-2.35;100.00;102670.50;6202407;22;20012;-92
2024/01/08 00:38:40;;;;;;;11.95;7.53;;;;;;;-2.28;100.00;102677.66;6226814;22;20439;-91
2024/01/08 00:41:05;;;;;;;13.30;7.68;;;;;;;-2.20;100.00;102683.06;6201968;22;20011;-91
2024/01/08 00:43:31;;;;;;;12.45;6.97;;;;;;;-2.17;100.00;102670.53;6227269;22;20003;-91
2024/01/08 00:45:56;;;;;;;14.30;7.43;;;;;;;-2.23;100.00;102678.56;6202347;22;20313;-90
2024/01/08 00:48:22;;;;;;;14.23;8.90;;;;;;;-2.24;100.00;102672.31;6203313;22;20018;-90
2024/01/08 00:50:48;;;;;;;13.02;6.97;;;;;;;-2.23;100.00;102674.13;6229010;22;20003;-90
2024/01/08 00:53:13;;;;;;;12.98;7.88;;;;;;;-2.28;100.00;102685.72;6244668;22;19992;-90
2024/01/08 00:55:39;;;;;;;13.90;7.72;;;;;;;-2.29;100.00;102666.03;6214533;22;19999;-90
2024/01/08 00:58:04;;;;;;;12.73;8.25;;;;;;;-2.32;100.00;102673.19;6202447;22;20008;-89
2024/01/08 01:00:31;;;;;;;15.13;8.60;;;;;;;-2.46;100.00;102655.25;6226767;22;20018;-90
2024/01/08 01:02:56;;;;;;;13.50;7.80;;;;;;;-2.34;100.00;102677.66;6205059;23;20087;-91
2024/01/08 01:05:21;;;;;;;11.88;7.45;;;;;;;-2.34;100.00;102680.34;6205034;23;20008;-90
2024/01/08 01:07:47;;;;;;;12.18;7.68;;;;;;;-2.37;100.00;102667.81;6215007;23;20073;-92
2024/01/08 01:10:13;;;;;;;12.38;8.52;;;;;;;-2.27;100.00;102674.09;6197024;23;20091;-90
2024/01/08 01:12:38;;;;;;;13.75;7.57;;;;;;;-2.30;100.00;102679.44;6196303;23;20087;-91
2024/01/08 01:15:04;;;;;;;20.42;8.73;;;;;;;-2.43;100.00;102673.13;6221734;23;20004;-91
2024/01/08 01:17:30;;;;;;;11.63;7.30;;;;;;;-2.38;100.00;102679.41;6221589;23;20004;-91
2024/01/08 01:19:55;;;;;;;14.27;7.72;;;;;;;-2.23;100.00;102678.56;6220297;23;20011;-91
2024/01/08 01:22:21;;;;;;;16.70;6.93;;;;;;;-2.31;100.00;102685.69;6222271;23;20008;-91
2024/01/08 01:24:46;;;;;;;14.02;7.72;;;;;;;-2.34;100.00;102691.06;6196336;23;20065;-89
2024/01/08 01:27:11;;;;;;;10.40;7.00;;;;;;;-2.33;100.00;102691.03;6221701;23;20020;-89
2024/01/08 01:29:37;;;;;;;12.25;7.22;;;;;;;-2.35;100.00;102691.94;6221591;23;20011;-89
2024/01/08 01:32:04;;;;;;;15.35;7.43;;;;;;;-2.29;100.00;102695.56;6196396;23;20335;-89
2024/01/08 01:34:30;;;;;;;11.25;6.55;;;;;;;-2.27;100.00;102690.19;6203318;23;20004;-90
2024/01/08 01:36:55;;;;;;;13.15;7.57;;;;;;;-2.22;100.00;102697.34;6212112;23;20027;-92
2024/01/08 01:39:21;;;;;;;12.43;6.97;;;;;;;-2.27;100.00;102699.13;6239161;23;20530;-91
2024/01/08 01:41:47;;;;;;;12.57;7.03;;;;;;;-2.35;100.00;102684.78;6215696;23;20012;-91
2024/01/08 01:44:13;;;;;;;8.82;5.25;;;;;;;-2.30;100.00;102696.44;6199872;23;20008;-92
2024/01/08 01:46:38;;;;;;;12.10;5.93;;;;;;;-2.35;100.00;102694.63;6196781;23;20486;-92
2024/01/08 01:49:04;;;;;;;12.07;6.43;;;;;;;-2.27;100.00;102696.44;6222422;23;20004;-91
2024/01/08 01:51:31;;;;;;;10.90;6.07;;;;;;;-2.31;100.00;102710.75;6223425;23;20020;-92
2024/01/08 01:53:57;;;;;;;9.35;5.63;;;;;;;-2.32;100.00;102702.69;6207951;23;20123;-91
2024/01/08 01:56:24;;;;;;;8.57;5.55;;;;;;;-2.34;100.00;102700.00;6219946;23;20018;-91
2024/01/08 01:58:50;;;;;;;8.77;4.25;;;;;;;-2.30;100.00;102699.13;6219907;23;20008;-91
2024/01/08 02:01:16;;;;;;;9.00;5.03;;;;;;;-2.34;100.00;102697.31;6243469;23;19988;-90
2024/01/08 02:03:42;;;;;;;9.23;6.13;;;;;;;-2.33;100.00;102703.56;6197515;23;20004;-90
2024/01/08 02:06:14;;;;;;;12.10;5.88;;;;;;;-2.47;100.00;102692.78;6221065;23;20058;-91
2024/01/08 02:08:39;;;;;;;11.20;6.80;;;;;;;-2.43;100.00;102694.59;6221199;23;20004;-90
2024/01/08 02:11:06;;;;;;;10.63;6.07;;;;;;;-2.52;100.00;102698.13;6195726;23;20031;-91
2024/01/08 02:13:32;;;;;;;13.50;7.57;;;;;;;-2.53;100.00;102704.38;6195889;23;20008;-90
2024/01/08 02:15:57;;;;;;;12.23;7.32;;;;;;;-2.58;100.00;102700.78;6220471;23;20018;-89
2024/01/08 02:18:23;;;;;;;14.45;8.00;;;;;;;-2.71;100.00;102705.16;6195777;23;20042;-89
2024/01/08 02:20:48;;;;;;;14.48;8.57;;;;;;;-2.79;100.00;102699.78;6195597;23;20008;-90
2024/01/08 02:23:14;;;;;;;16.02;8.95;;;;;;;-2.69;100.00;102713.22;6195752;23;20095;-90
2024/01/08 02:25:39;;;;;;;13.95;8.35;;;;;;;-2.74;100.00;102706.94;6195184;23;20027;-90
2024/01/08 02:28:06;;;;;;;15.88;7.82;;;;;;;-2.82;100.00;102706.88;6220173;23;20020;-90
2024/01/08 02:30:32;;;;;;;18.98;7.80;;;;;;;-2.81;100.00;102709.56;6220767;23;20004;-90
2024/01/08 02:32:57;;;;;;;15.63;8.25;;;;;;;-2.89;100.00;102707.72;6195914;23;20008;-90
2024/01/08 02:35:23;;;;;;;12.10;6.90;;;;;;;-2.93;100.00;102709.50;6195923;23;20008;-90
2024/01/08 02:37:48;;;;;;;15.05;7.90;;;;;;;-2.98;100.00;102709.47;6195808;23;20004;-90
2024/01/08 02:40:14;;;;;;;16.77;8.32;;;;;;;-3.04;100.00;102713.88;6196562;23;20077;-90
2024/01/08 02:42:40;;;;;;;13.35;7.72;;;;;;;-3.09;100.00;102716.53;6237789;23;19984;-90
2024/01/08 02:45:07;;;;;;;10.55;6.45;;;;;;;-3.03;100.00;102715.69;6204157;23;20056;-88
2024/01/08 02:47:37;;;;;;;15.75;7.05;;;;;;;-3.12;100.00;102718.28;6235022;23;20032;-90
2024/01/08 02:50:06;;;;;;;14.05;6.50;;;;;;;-3.16;100.00;102723.63;6196953;23;20099;-90
2024/01/08 02:52:33;;;;;;;12.38;5.78;;;;;;;-3.15;100.00;102724.50;6221464;23;20012;-90
2024/01/08 02:54:59;;;;;;;12.88;6.55;;;;;;;-3.21;100.00;102725.38;6224831;23;20023;-89
2024/01/08 02:57:28;;;;;;;12.02;6.97;;;;;;;-3.20;100.00;102721.81;6199332;23;20004;-90
2024/01/08 02:59:53;;;;;;;11.98;6.55;;;;;;;-3.18;100.00;102724.47;6235774;23;20000;-89
2024/01/08 03:02:19;;;;;;;13.30;7.35;;;;;;;-3.11;100.00;102718.31;6209754;23;20004;-89
2024/01/08 03:04:44;;;;;;;12.77;6.38;;;;;;;-3.04;100.00;102717.44;6197937;23;20012;-89
2024/01/08 03:07:17;;;;;;;13.85;6.18;;;;;;;-3.07;100.00;102724.56;6222546;23;20008;-90
2024/01/08 03:09:44;;;;;;;10.38;6.18;;;;;;;-3.09;100.00;102729.91;6222311;23;20319;-90
2024/01/08 03:12:10;;;;;;;14.30;6.57;;;;;;;-3.04;100.00;102728.16;6221830;23;20008;-89
2024/01/08 03:14:35;;;;;;;11.68;5.97;;;;;;;-3.00;100.00;102734.44;6197299;23;20281;-90
2024/01/08 03:17:00;;;;;;;12.05;6.50;;;;;;;-3.05;100.00;102736.19;6197247;23;20008;-89
2024/01/08 03:19:27;;;;;;;10.25;6.15;;;;;;;-2.96;100.00;102738.94;6197781;23;20343;-89
2024/01/08 03:21:52;;;;;;;13.40;6.85;;;;;;;-2.97;100.00;102732.72;6197647;23;20083;-89
2024/01/08 03:24:18;;;;;;;13.05;5.60;;;;;;;-2.96;100.00;102738.94;6197033;23;20390;-90
2024/01/08 03:26:43;;;;;;;10.63;5.47;;;;;;;-2.91;100.00;102726.47;6197001;23;20322;-90
2024/01/08 03:29:08;;;;;;;12.00;5.70;;;;;;;-2.95;100.00;102735.41;6222092;23;20003;-89
2024/01/08 03:31:40;;;;;;;11.65;5.38;;;;;;;-2.95;100.00;102727.38;6197319;23;20428;-90
2024/01/08 03:34:06;;;;;;;10.88;5.60;;;;;;;-2.89;100.00;102732.75;6221731;23;20004;-90
2024/01/08 03:36:31;;;;;;;15.27;5.68;;;;;;;-2.88;100.00;102733.66;6197485;23;20142;-90
2024/01/08 03:38:57;;;;;;;12.82;5.85;;;;;;;-2.88;100.00;102729.19;6197103;23;20336;-90
2024/01/08 03:41:22;;;;;;;12.43;5.90;;;;;;;-2.87;100.00;102730.06;6196496;23;20004;-89
2024/01/08 03:43:47;;;;;;;14.63;6.35;;;;;;;-2.88;100.00;102730.97;6197147;23;20004;-89
2024/01/08 03:46:13;;;;;;;13.15;6.00;;;;;;;-2.74;100.00;102723.03;6197116;23;20139;-89
2024/01/08 03:48:39;;;;;;;20.10;6.28;;;;;;;-2.88;100.00;102721.16;6197014;23;20087;-90
2024/01/08 03:51:04;;;;;;;13.10;6.03;;;;;;;-2.77;100.00;102729.28;6197175;23;20004;-89
2024/01/08 03:53:29;;;;;;;14.02;6.15;;;;;;;-2.91;100.00;102726.47;6197927;23;20008;-89
2024/01/08 03:55:55;;;;;;;14.35;6.50;;;;;;;-2.83;100.00;102730.13;6198411;23;20004;-90
2024/01/08 03:58:20;;;;;;;8.00;3.72;;;;;;;-2.66;100.00;102714.13;6197717;23;20031;-89
2024/01/08 04:00:46;;;;;;;11.93;6.32;;;;;;;-2.74;100.00;102726.59;6196599;23;20008;-88
2024/01/08 04:03:13;;;;;;;12.38;5.60;;;;;;;-2.83;100.00;102739.94;6196436;23;20014;-89
2024/01/08 04:05:38;;;;;;;10.95;6.00;;;;;;;-2.80;100.00;102730.13;6222611;23;20027;-89
2024/01/08 04:08:04;;;;;;;14.05;6.45;;;;;;;-2.87;100.00;102722.94;6222655;23;20428;-89
2024/01/08 04:10:31;;;;;;;12.80;5.97;;;;;;;-2.78;100.00;102730.16;6222426;23;20381;-88
2024/01/08 04:12:59;;;;;;;12.90;5.93;;;;;;;-2.83;100.00;102727.44;6222329;23;20093;-89
2024/01/08 04:15:25;;;;;;;10.05;5.97;;;;;;;-2.77;100.00;102722.13;6201189;23;20095;-88
2024/01/08 04:17:50;;;;;;;12.85;6.43;;;;;;;-2.75;100.00;102731.94;6203507;23;20004;-87
2024/01/08 04:20:16;;;;;;;12.73;6.13;;;;;;;-2.77;100.00;102740.00;6208683;23;20008;-88
2024/01/08 04:22:44;;;;;;;10.95;5.88;;;;;;;-2.74;100.00;102742.66;6206555;23;20076;-88
2024/01/08 04:25:10;;;;;;;14.55;6.60;;;;;;;-2.76;100.00;102733.72;6233969;23;20015;-89
2024/01/08 04:27:35;;;;;;;9.18;5.13;;;;;;;-2.71;100.00;102731.09;6208197;23;20104;-89
2024/01/08 04:30:01;;;;;;;14.48;6.13;;;;;;;-2.83;100.00;102735.47;6210541;23;20008;-89
2024/01/08 04:32:26;;;;;;;13.95;5.30;;;;;;;-2.85;100.00;102742.63;6229364;23;20344;-89
2024/01/08 04:34:52;;;;;;;14.27;6.45;;;;;;;-2.80;100.00;102740.84;6196830;23;20065;-88
2024/01/08 04:37:17;;;;;;;13.65;6.40;;;;;;;-2.83;100.00;102735.47;6196554;23;20391;-89
2024/01/08 04:39:43;;;;;;;13.82;6.90;;;;;;;-2.80;100.00;102737.28;6221634;23;20004;-89
2024/01/08 04:42:08;;;;;;;14.93;6.55;;;;;;;-2.74;100.00;102731.94;6196266;23;20335;-89
2024/01/08 04:44:35;;;;;;;13.10;6.57;;;;;;;-2.79;100.00;102729.25;6220962;23;20452;-89
2024/01/08 04:47:01;;;;;;;12.35;6.80;;;;;;;-2.79;100.00;102731.03;6196526;23;20513;-89
2024/01/08 04:49:26;;;;;;;13.88;6.30;;;;;;;-2.78;100.00;102723.00;6221777;23;20036;-88
2024/01/08 04:51:53;;;;;;;18.38;6.60;;;;;;;-2.76;100.00;102723.00;6221082;23;20018;-89
2024/01/08 04:54:18;;;;;;;14.32;6.75;;;;;;;-2.78;100.00;102731.03;6222172;23;20008;-89
2024/01/08 04:56:45;;;;;;;10.50;5.97;;;;;;;-2.74;100.00;102734.63;6196549;23;20047;-89
2024/01/08 04:59:11;;;;;;;12.88;6.72;;;;;;;-2.81;100.00;102730.13;6197974;23;20420;-89
2024/01/08 05:01:37;;;;;;;12.20;6.75;;;;;;;-2.78;100.00;102730.16;6205480;23;20000;-86
2024/01/08 05:04:05;;;;;;;13.13;6.60;;;;;;;-2.72;100.00;102729.28;6213934;23;20012;-93
2024/01/08 05:06:30;;;;;;;23.42;7.53;;;;;;;-2.72;100.00;102727.50;6231730;23;20071;-95
2024/01/08 05:08:56;;;;;;;12.15;5.80;;;;;;;-2.71;100.00;102736.44;6250197;23;20008;-95
2024/01/08 05:11:22;;;;;;;11.13;6.40;;;;;;;-2.77;100.00;102729.28;6198524;23;20046;-95
2024/01/08 05:13:48;;;;;;;17.55;7.93;;;;;;;-2.86;100.00;102722.03;6198415;23;20008;-93
2024/01/08 05:16:15;;;;;;;10.95;5.50;;;;;;;-2.69;100.00;102730.22;6197763;23;20424;-93
2024/01/08 05:18:40;;;;;;;18.42;6.40;;;;;;;-2.70;100.00;102730.22;6198178;23;20004;-92
2024/01/08 05:21:07;;;;;;;16.23;7.55;;;;;;;-2.67;100.00;102732.88;6197245;23;20007;-93
2024/01/08 05:23:33;;;;;;;11.93;6.95;;;;;;;-2.77;100.00;102727.47;6198139;23;20012;-94
2024/01/08 05:26:00;;;;;;;16.02;7.20;;;;;;;-2.71;100.00;102729.28;6197814;23;20463;-94
2024/01/08 05:28:27;;;;;;;14.45;7.15;;;;;;;-2.79;100.00;102731.94;6222737;23;20024;-95
2024/01/08 05:30:52;;;;;;;17.63;7.25;;;;;;;-2.78;100.00;102731.03;6222891;23;20032;-93
2024/01/08 05:33:18;;;;;;;16.70;7.20;;;;;;;-2.77;100.00;102726.59;6198270;23;20015;-94
2024/01/08 05:35:44;;;;;;;15.45;8.05;;;;;;;-2.72;100.00;102723.91;6224064;23;20008;-95
2024/01/08 05:38:10;;;;;;;15.38;7.70;;;;;;;-2.78;100.00;102714.06;6222872;23;20015;-94
2024/01/08 05:40:36;;;;;;;14.30;8.00;;;;;;;-2.71;100.00;102717.69;6223824;23;20004;-93
2024/01/08 05:43:05;;;;;;;10.65;6.68;;;;;;;-2.65;100.00;102729.34;6197492;23;20019;-92
2024/01/08 05:45:30;;;;;;;12.02;6.85;;;;;;;-2.63;100.00;102719.50;6221517;23;20503;-93
2024/01/08 05:47:56;;;;;;;16.08;7.07;;;;;;;-2.76;100.00;102712.28;6222012;23;20008;-92
2024/01/08 05:50:25;;;;;;;17.30;6.57;;;;;;;-2.70;100.00;102719.50;6225655;23;20008;-93
2024/01/08 05:52:57;;;;;;;14.63;7.03;;;;;;;-2.77;100.00;102715.88;6198601;23;20018;-96
2024/01/08 05:55:24;;;;;;;11.63;7.28;;;;;;;-2.64;100.00;102712.38;6235699;22;20015;-96
2024/01/08 05:57:50;;;;;;;13.75;7.32;;;;;;;-2.66;100.00;102707.88;6246537;23;20004;-96
2024/01/08 06:00:17;;;;;;;13.15;6.75;;;;;;;-2.64;100.00;102709.69;6247114;22;19999;-96
2024/01/08 06:02:46;;;;;;;15.40;7.93;;;;;;;-2.55;100.00;102718.69;6269794;22;20000;-96
2024/01/08 06:05:13;;;;;;;16.45;7.88;;;;;;;-2.63;100.00;102719.50;6241413;23;20015;-96
2024/01/08 06:07:42;;;;;;;19.35;7.97;;;;;;;-2.68;100.00;102715.03;6236855;23;20000;-96
2024/01/08 06:10:22;;;;;;;15.60;7.95;;;;;;;-2.61;100.00;102730.25;6233813;23;20012;-96
2024/01/08 06:12:48;;;;;;;15.55;8.65;;;;;;;-2.65;100.00;102709.69;6259067;23;20004;-89
2024/01/08 06:15:13;;;;;;;19.88;10.00;;;;;;;-2.61;100.00;102727.56;6196151;23;20028;-90
2024/01/08 06:17:39;;;;;;;19.55;7.40;;;;;;;-2.59;100.00;102725.81;6196446;23;20098;-89
2024/01/08 06:20:05;;;;;;;13.23;7.57;;;;;;;-2.52;100.00;102724.94;6195701;23;20015;-89
2024/01/08 06:22:30;;;;;;;17.15;7.70;;;;;;;-2.56;100.00;102727.59;6195517;23;20018;-89
2024/01/08 06:24:56;;;;;;;19.10;8.25;;;;;;;-2.56;100.00;102725.81;6196170;23;20018;-89
2024/01/08 06:27:21;;;;;;;16.83;9.15;;;;;;;-2.62;100.00;102721.31;6220630;23;20051;-90
2024/01/08 06:29:47;;;;;;;17.52;9.23;;;;;;;-2.65;100.00;102712.38;6195756;23;20036;-90
2024/01/08 06:32:12;;;;;;;23.23;9.23;;;;;;;-2.63;100.00;102708.78;6195571;23;20091;-90
2024/01/08 06:34:37;;;;;;;20.17;10.35;;;;;;;-2.55;100.00;102710.63;6195918;23;20096;-90
2024/01/08 06:37:03;;;;;;;13.45;7.57;;;;;;;-2.49;100.00;102721.38;6196884;23;20047;-90
2024/01/08 06:39:33;;;;;;;20.13;10.32;;;;;;;-2.46;100.00;102710.66;6196922;23;20059;-90
2024/01/08 06:41:59;;;;;;;23.42;9.98;;;;;;;-2.50;100.00;102706.19;6257921;23;20059;-89
2024/01/08 06:44:24;;;;;;;17.85;8.38;;;;;;;-2.50;100.00;102709.75;6211052;23;20549;-90
2024/01/08 06:46:50;;;;;;;20.52;9.07;;;;;;;-2.46;100.00;102722.31;6208744;23;20027;-89
2024/01/08 06:49:16;;;;;;;16.77;8.38;;;;;;;-2.45;100.00;102721.41;6209286;23;20435;-89
2024/01/08 06:51:41;;;;;;;19.67;10.07;;;;;;;-2.44;100.00;102725.00;6232925;23;20380;-91
2024/01/08 06:54:07;;;;;;;17.63;9.00;;;;;;;-2.46;100.00;102727.66;6231221;23;20016;-89
2024/01/08 06:56:33;;;;;;;20.38;10.30;;;;;;;-2.42;100.00;102733.94;6210628;23;20498;-90
2024/01/08 06:59:01;;;;;;;20.63;9.57;;;;;;;-2.41;100.00;102738.41;6203291;23;20031;-91
2024/01/08 07:01:27;;;;;;;22.52;9.75;;;;;;;-2.33;100.00;102735.75;6234372;23;20004;-90
2024/01/08 07:03:53;;;;;;;19.60;10.52;;;;;;;-2.46;100.00;102725.00;6233172;23;20012;-90
2024/01/08 07:06:18;;;;;;;20.90;9.90;;;;;;;-2.37;100.00;102731.28;6213686;23;20438;-91
2024/01/08 07:08:45;;;;;;;16.35;9.02;;;;;;;-2.37;100.00;102723.25;6196538;23;20451;-90
2024/01/08 07:11:22;;;;;;;23.60;9.65;;;;;;;-2.32;100.00;102737.56;6196655;23;20008;-91
2024/01/08 07:13:49;;;;;;;16.95;9.48;;;;;;;-2.36;100.00;102735.75;6220490;23;20011;-91
2024/01/08 07:16:15;;;;;;;25.10;10.90;;;;;;;-2.42;100.00;102724.09;6221392;23;20091;-91
2024/01/08 07:18:40;;;;;;;23.75;10.45;;;;;;;-2.41;100.00;102733.94;6220825;23;20008;-91
2024/01/08 07:21:07;;;;;;;18.90;10.02;;;;;;;-2.42;100.00;102736.63;6195537;23;20542;-90
2024/01/08 07:23:34;;;;;;;23.73;9.98;;;;;;;-2.28;100.00;102750.09;6221261;23;20096;-90
2024/01/08 07:25:59;;;;;;;20.38;10.70;;;;;;;-2.37;100.00;102736.66;6224762;23;20008;-90
2024/01/08 07:28:25;;;;;;;17.33;10.52;;;;;;;-2.35;100.00;102740.22;6197182;23;20016;-90
2024/01/08 07:30:50;;;;;;;17.23;8.95;;;;;;;-2.28;100.00;102736.69;6198276;23;20047;-91
2024/01/08 07:33:16;;;;;;;18.40;9.93;;;;;;;-2.24;100.00;102735.81;6197315;23;20008;-91
2024/01/08 07:35:41;;;;;;;21.65;10.90;;;;;;;-2.27;100.00;102744.72;6199279;23;20008;-91
2024/01/08 07:38:07;;;;;;;22.20;10.55;;;;;;;-2.28;100.00;102736.69;6235317;23;20020;-90
2024/01/08 07:40:32;;;;;;;25.90;10.73;;;;;;;-2.28;100.00;102745.66;6211647;23;20019;-90
2024/01/08 07:42:58;;;;;;;21.67;9.30;;;;;;;-2.24;100.00;102739.38;6219616;23;20011;-90
2024/01/08 07:45:27;;;;;;;21.05;9.88;;;;;;;-2.27;100.00;102747.41;6204179;23;20004;-90
2024/01/08 07:47:54;;;;;;;20.40;9.50;;;;;;;-2.27;100.00;102738.47;6222484;23;20074;-90
2024/01/08 07:50:21;;;;;;;20.70;10.00;;;;;;;-2.21;100.00;102751.94;6224355;23;20015;-90
2024/01/08 07:52:48;;;;;;;19.35;10.20;;;;;;;-2.14;100.00;102752.84;6199697;23;20424;-91
2024/01/08 07:55:14;;;;;;;20.92;10.25;;;;;;;-2.17;100.00;102760.88;6201986;23;20019;-90
2024/01/08 07:57:39;;;;;;;23.42;10.48;;;;;;;-2.22;100.00;102760.84;6200348;23;20005;-90
2024/01/08 08:00:06;;;;;;;19.58;9.82;;;;;;;-2.14;100.00;102756.44;6200128;23;20107;-91
2024/01/08 08:02:40;;;;;;;19.35;10.73;;;;;;;-2.18;100.00;102757.31;6222113;23;20011;-90
2024/01/08 08:05:06;;;;;;;24.17;9.57;;;;;;;-2.21;100.00;102759.97;6200840;23;20008;-90
2024/01/08 08:07:32;;;;;;;23.35;11.32;;;;;;;-2.23;100.00;102753.69;6201807;23;20008;-90
2024/01/08 08:09:59;;;;;;;21.88;10.68;;;;;;;-2.19;100.00;102758.19;6224773;23;20019;-89
2024/01/08 08:12:24;;;;;;;23.48;9.00;;;;;;;-2.18;100.00;102760.00;6196850;23;20004;-85
2024/01/08 08:14:50;;;;;;;20.10;10.23;;;;;;;-2.26;100.00;102756.38;6219665;23;20008;-86
2024/01/08 08:17:16;;;;;;;16.77;8.93;;;;;;;-2.20;100.00;102755.50;6194794;23;20012;-86
2024/01/08 08:19:42;;;;;;;21.90;10.52;;;;;;;-2.19;100.00;102760.88;6194597;23;20054;-86
2024/01/08 08:22:11;;;;;;;16.00;8.60;;;;;;;-2.18;100.00;102765.38;6217870;23;20016;-84
2024/01/08 08:24:46;;;;;;;20.70;11.07;;;;;;;-2.19;100.00;102765.34;6217416;23;20105;-85
2024/01/08 08:27:12;;;;;;;22.30;10.48;;;;;;;-2.25;100.00;102764.44;6243114;23;20540;-84
2024/01/08 08:29:43;;;;;;;21.70;10.43;;;;;;;-2.21;100.00;102762.66;6193262;23;20016;-85
2024/01/08 08:32:11;;;;;;;18.83;9.38;;;;;;;-2.20;100.00;102758.19;6246089;23;20446;-86
2024/01/08 08:34:36;;;;;;;21.60;10.35;;;;;;;-2.20;100.00;102769.81;6250213;23;20031;-94
2024/01/08 08:37:03;;;;;;;19.23;9.95;;;;;;;-2.20;100.00;102764.44;6201730;23;20008;-96
2024/01/08 08:39:28;;;;;;;22.00;10.13;;;;;;;-2.30;100.00;102774.22;6224739;23;20062;-94
2024/01/08 08:41:57;;;;;;;21.55;10.32;;;;;;;-2.28;100.00;102774.22;6198292;23;20365;-90
2024/01/08 08:44:23;;;;;;;20.75;10.07;;;;;;;-2.26;100.00;102778.72;6198377;23;20008;-92
2024/01/08 08:46:49;;;;;;;25.55;11.13;;;;;;;-2.29;100.00;102775.16;6196428;23;20015;-90
2024/01/08 08:49:16;;;;;;;25.48;10.32;;;;;;;-2.28;100.00;102780.53;6221268;23;20008;-93
2024/01/08 08:51:47;;;;;;;22.30;9.82;;;;;;;-2.28;100.00;102774.22;6247444;23;20019;-89
2024/01/08 08:54:13;;;;;;;25.63;10.90;;;;;;;-2.32;100.00;102783.16;6222237;23;20440;-95
2024/01/08 08:56:40;;;;;;;20.80;9.85;;;;;;;-2.23;100.00;102791.25;6224473;23;20008;-92
2024/01/08 08:59:05;;;;;;;19.02;9.38;;;;;;;-2.31;100.00;102783.19;6200534;23;20066;-91
2024/01/08 09:01:31;;;;;;;24.83;10.68;;;;;;;-2.26;100.00;102791.25;6199820;23;20095;-95
2024/01/08 09:03:59;;;;;;;25.13;10.93;;;;;;;-2.24;100.00;102797.53;6223858;23;20004;-90
2024/01/08 09:06:25;;;;;;;19.02;10.15;;;;;;;-2.23;100.00;102799.28;6200100;23;20004;-91
2024/01/08 09:08:53;;;;;;;22.15;10.05;;;;;;;-2.16;100.00;102787.72;6257739;23;20008;-94
2024/01/08 09:11:19;;;;;;;18.48;9.68;;;;;;;-2.21;100.00;102800.22;6218813;23;20016;-95
2024/01/08 09:13:48;;;;;;;23.85;9.55;;;;;;;-2.19;100.00;102789.50;6247965;22;19996;-96
2024/01/08 09:16:15;;;;;;;20.13;8.38;;;;;;;-2.10;100.00;102790.44;6271746;23;19989;-94
2024/01/08 09:18:41;;;;;;;18.92;9.00;;;;;;;-2.14;100.00;102794.00;6221293;23;19996;-88
2024/01/08 09:21:12;;;;;;;16.98;8.95;;;;;;;-2.20;100.00;102780.53;6274103;22;20008;-93
2024/01/08 09:23:39;;;;;;;17.40;9.65;;;;;;;-2.10;100.00;102787.75;6224174;22;19996;-96
2024/01/08 09:26:06;;;;;;;25.40;9.90;;;;;;;-2.17;100.00;102780.56;6248132;23;20059;-96
2024/01/08 09:28:32;;;;;;;23.17;9.98;;;;;;;-2.12;100.00;102799.38;6239758;23;20016;-95
2024/01/08 09:31:00;;;;;;;19.60;10.55;;;;;;;-2.10;100.00;102801.19;6230336;23;20036;-96
2024/01/08 09:33:25;;;;;;;21.63;10.07;;;;;;;-2.17;100.00;102796.66;6223555;23;20015;-95
2024/01/08 09:35:51;;;;;;;19.30;9.25;;;;;;;-2.14;100.00;102804.72;6222066;23;20004;-96
2024/01/08 09:38:16;;;;;;;17.05;9.18;;;;;;;-2.08;100.00;102799.41;6222048;23;20012;-96
2024/01/08 09:40:42;;;;;;;20.23;9.60;;;;;;;-1.96;100.00;102806.59;6197973;23;20096;-96
2024/01/08 09:43:09;;;;;;;18.40;8.80;;;;;;;-2.01;100.00;102802.13;6223031;23;20131;-94
2024/01/08 09:45:44;;;;;;;18.38;9.65;;;;;;;-2.06;100.00;102802.09;6196833;23;20022;-94
2024/01/08 09:48:11;;;;;;;19.35;9.25;;;;;;;-2.09;100.00;102810.13;6248560;23;20031;-95
2024/01/08 09:50:38;;;;;;;16.95;8.93;;;;;;;-2.06;100.00;102807.47;6222751;23;20012;-93
2024/01/08 09:53:06;;;;;;;18.60;9.48;;;;;;;-2.05;100.00;102818.19;6198568;23;20028;-95
2024/01/08 09:55:33;;;;;;;21.58;8.40;;;;;;;-2.10;100.00;102822.66;6225271;23;20004;-95
2024/01/08 09:58:01;;;;;;;14.23;7.13;;;;;;;-2.07;100.00;102817.28;6204061;23;20095;-95
2024/01/08 10:00:27;;;;;;;15.57;8.63;;;;;;;-2.06;100.00;102813.72;6230976;23;20345;-95
2024/01/08 10:02:56;;;;;;;18.55;9.80;;;;;;;-2.05;100.00;102801.19;6225212;23;20012;-94
2024/01/08 10:05:26;;;;;;;17.50;8.65;;;;;;;-1.98;100.00;102807.47;6221224;23;20004;-94
2024/01/08 10:07:52;;;;;;;14.77;7.10;;;;;;;-1.96;100.00;102800.34;6220804;23;20016;-95
2024/01/08 10:10:19;;;;;;;15.80;8.25;;;;;;;-1.97;100.00;102806.59;6196302;23;20020;-94
2024/01/08 10:12:49;;;;;;;14.00;7.53;;;;;;;-2.01;100.00;102803.00;6197178;23;20012;-96
2024/01/08 10:15:18;;;;;;;18.25;8.07;;;;;;;-1.98;100.00;102810.16;6196586;23;20008;-96
2024/01/08 10:17:51;;;;;;;22.58;9.15;;;;;;;-1.95;100.00;102808.41;6223321;23;20092;-96
2024/01/08 10:20:17;;;;;;;16.27;8.47;;;;;;;-1.89;100.00;102805.72;6221558;23;20004;-94
2024/01/08 10:22:47;;;;;;;16.33;8.48;;;;;;;-1.87;100.00;102803.97;6222150;23;20011;-96
2024/01/08 10:25:21;;;;;;;13.70;7.60;;;;;;;-1.87;100.00;102803.06;6217961;23;20499;-96
2024/01/08 10:27:47;;;;;;;17.90;7.93;;;;;;;-1.98;100.00;102794.97;6227447;23;20012;-96
2024/01/08 10:30:12;;;;;;;12.18;6.03;;;;;;;-1.94;100.00;102796.75;6224140;23;20000;-93
2024/01/08 10:32:38;;;;;;;13.15;6.43;;;;;;;-1.97;100.00;102791.38;6221836;23;20027;-96
2024/01/08 10:35:04;;;;;;;16.17;7.72;;;;;;;-1.89;100.00;102802.16;6198439;23;20008;-96
2024/01/08 10:37:30;;;;;;;11.88;6.88;;;;;;;-1.84;100.00;102795.00;6248069;23;20012;-96
2024/01/08 10:39:57;;;;;;;11.13;6.13;;;;;;;-1.49;100.00;102799.63;6197321;23;20038;-94
2024/01/08 10:42:23;;;;;;;10.90;5.95;;;;;;;-1.18;100.00;102799.66;6220697;23;19996;-93
2024/01/08 10:44:49;;;;;;;14.07;5.97;;;;;;;-1.00;100.00;102788.03;6196619;23;20058;-94
2024/01/08 10:47:23;;;;;;;6.78;3.95;;;;;;;-0.72;100.00;102786.25;6199175;23;20008;-94
2024/01/08 10:49:56;;;;;;;9.93;4.97;;;;;;;-0.53;100.00;102787.09;6200375;23;20111;-94
2024/01/08 10:52:27;;;;;;;9.98;5.25;;;;;;;-0.67;100.00;102783.53;6234933;23;20009;-92
2024/01/08 10:54:57;;;;;;;6.30;3.78;;;;;;;-0.79;100.00;102784.44;6237649;23;20007;-93
2024/01/08 10:57:49;;;;;;;7.93;4.10;;;;;;;-0.99;100.00;102774.59;6239372;23;20004;-92
2024/01/08 11:00:15;;;;;;;8.77;4.03;;;;;;;-1.21;100.00;102779.06;6236443;23;20008;-92
2024/01/08 11:02:44;;;;;;;7.00;4.55;;;;;;;-1.37;100.00;102778.13;6208237;23;20087;-94
2024/01/08 11:05:10;;;;;;;3.92;2.50;;;;;;;-1.43;100.00;102778.13;6223059;23;20435;-93
2024/01/08 11:07:38;;;;;;;9.80;4.35;;;;;;;-1.39;100.00;102769.19;6221888;23;20058;-94
2024/01/08 11:10:04;;;;;;;6.85;3.45;;;;;;;-1.18;100.00;102778.16;6222651;23;20004;-94
2024/01/08 11:12:30;;;;;;;7.25;3.50;;;;;;;-0.62;100.00;102768.31;6223359;23;20008;-90
2024/01/08 11:15:06;;;;;;;5.13;3.72;;;;;;;-0.52;100.00;102770.06;6224321;23;20015;-93
2024/01/08 11:17:32;;;;;;;9.38;3.55;;;;;;;-0.59;100.00;102770.97;6198445;23;20008;-93
2024/01/08 11:19:59;;;;;;;6.40;3.25;;;;;;;-0.85;100.00;102774.59;6222545;23;20038;-94
2024/01/08 11:22:25;;;;;;;13.57;4.32;;;;;;;-0.95;100.00;102762.06;6223962;23;20500;-93
2024/01/08 11:24:57;;;;;;;8.32;3.80;;;;;;;-0.81;100.00;102765.63;6197352;23;20095;-93
2024/01/08 11:27:24;;;;;;;7.93;3.90;;;;;;;-1.02;100.00;102760.25;6223690;23;20023;-94
2024/01/08 11:30:01;;;;;;;4.88;3.40;;;;;;;-0.86;100.00;102774.59;6223321;23;20061;-93
2024/01/08 11:33:18;;;;;;;5.93;3.30;;;;;;;-0.84;100.00;102771.00;6198654;23;20066;-93